sensor_id;sensor_type;location;lat;lon;timestamp;pressure;altitude;pressure_sealevel;temperature;humidity
8641;BME280;4358;42.100;25.222;2023-03-21T00:02:04;100082.81;;;10.65;100.00
8641;BME280;4358;42.100;25.222;2023-03-21T00:04:31;100087.91;;;10.68;100.00
8641;BME280;4358;42.100;25.222;2023-03-21T00:06:58;100070.50;;;10.64;100.00
8641;BME280;4358;42.100;25.222;2023-03-21T00:09:26;100082.44;;;10.71;100.00
8641;BME280;4358;42.100;25.222;2023-03-21T00:11:53;100077.72;;;10.62;100.00
8641;BME280;4358;42.100;25.222;2023-03-21T00:14:20;100075.91;;;10.62;100.00
8641;BME280;4358;42.100;25.222;2023-03-21T00:16:50;100073.66;;;10.56;100.00
8641;BME280;4358;42.100;25.222;2023-03-21T00:19:17;100071.00;;;10.56;100.00
8641;BME280;4358;42.100;25.222;2023-03-21T00:21:45;100062.06;;;10.57;100.00
8641;BME280;4358;42.100;25.222;2023-03-21T00:24:12;100060.28;;;10.58;100.00
8641;BME280;4358;42.100;25.222;2023-03-21T00:26:40;100057.28;;;10.50;100.00
8641;BME280;4358;42.100;25.222;2023-03-21T00:29:06;100048.94;;;10.42;100.00
8641;BME280;4358;42.100;25.222;2023-03-21T00:31:33;100044.91;;;10.36;100.00
8641;BME280;4358;42.100;25.222;2023-03-21T00:34:00;100049.34;;;10.36;100.00
8641;BME280;4358;42.100;25.222;2023-03-21T00:36:27;100038.34;;;10.28;100.00
8641;BME280;4358;42.100;25.222;2023-03-21T00:38:54;100035.69;;;10.28;100.00
8641;BME280;4358;42.100;25.222;2023-03-21T00:41:21;100037.22;;;10.32;100.00
8641;BME280;4358;42.100;25.222;2023-03-21T00:43:49;100030.00;;;10.34;100.00
8641;BME280;4358;42.100;25.222;2023-03-21T00:46:20;100028.31;;;10.33;100.00
8641;BME280;4358;42.100;25.222;2023-03-21T00:48:46;100028.13;;;10.36;100.00
8641;BME280;4358;42.100;25.222;2023-03-21T00:51:18;100027.91;;;10.39;100.00
8641;BME280;4358;42.100;25.222;2023-03-21T00:53:51;100028.69;;;10.41;100.00
8641;BME280;4358;42.100;25.222;2023-03-21T00:56:18;100029.63;;;10.40;100.00
8641;BME280;4358;42.100;25.222;2023-03-21T00:58:45;100024.22;;;10.41;100.00
8641;BME280;4358;42.100;25.222;2023-03-21T01:01:13;100019.66;;;10.43;100.00
8641;BME280;4358;42.100;25.222;2023-03-21T01:03:40;100018.16;;;10.39;100.00
8641;BME280;4358;42.100;25.222;2023-03-21T01:06:17;100010.97;;;10.41;100.00
8641;BME280;4358;42.100;25.222;2023-03-21T01:08:46;100012.47;;;10.45;100.00
8641;BME280;4358;42.100;25.222;2023-03-21T01:11:16;100008.00;;;10.46;100.00
8641;BME280;4358;42.100;25.222;2023-03-21T01:13:43;100008.88;;;10.46;100.00
8641;BME280;4358;42.100;25.222;2023-03-21T01:16:10;100001.53;;;10.50;100.00
8641;BME280;4358;42.100;25.222;2023-03-21T01:18:40;99996.78;;;10.55;100.00
8641;BME280;4358;42.100;25.222;2023-03-21T01:21:09;100000.59;;;10.51;100.00
8641;BME280;4358;42.100;25.222;2023-03-21T01:23:37;99994.44;;;10.50;100.00
8641;BME280;4358;42.100;25.222;2023-03-21T01:26:05;99997.78;;;10.40;100.00
8641;BME280;4358;42.100;25.222;2023-03-21T01:28:33;99991.13;;;10.47;100.00
8641;BME280;4358;42.100;25.222;2023-03-21T01:31:01;99984.44;;;10.41;100.00
8641;BME280;4358;42.100;25.222;2023-03-21T01:33:29;99985.69;;;10.36;100.00
8641;BME280;4358;42.100;25.222;2023-03-21T01:35:58;99989.91;;;10.38;100.00
8641;BME280;4358;42.100;25.222;2023-03-21T01:38:25;99983.03;;;10.36;100.00
8641;BME280;4358;42.100;25.222;2023-03-21T01:40:52;99985.69;;;10.36;100.00
8641;BME280;4358;42.100;25.222;2023-03-21T01:43:22;99976.56;;;10.40;100.00
8641;BME280;4358;42.100;25.222;2023-03-21T01:46:21;99971.88;;;10.31;100.00
8641;BME280;4358;42.100;25.222;2023-03-21T01:48:54;99969.09;;;10.32;100.00
8641;BME280;4358;42.100;25.222;2023-03-21T01:51:25;99960.13;;;10.20;100.00
8641;BME280;4358;42.100;25.222;2023-03-21T01:53:54;99968.22;;;10.32;100.00
8641;BME280;4358;42.100;25.222;2023-03-21T01:56:24;99948.72;;;10.33;100.00
8641;BME280;4358;42.100;25.222;2023-03-21T01:58:55;99953.28;;;10.31;100.00
8641;BME280;4358;42.100;25.222;2023-03-21T02:01:27;99951.44;;;10.18;100.00
8641;BME280;4358;42.100;25.222;2023-03-21T02:03:54;99947.53;;;10.10;100.00
8641;BME280;4358;42.100;25.222;2023-03-21T02:06:32;99954.63;;;10.24;100.00
8641;BME280;4358;42.100;25.222;2023-03-21T02:09:04;99951.19;;;10.36;100.00
8641;BME280;4358;42.100;25.222;2023-03-21T02:11:34;99950.97;;;10.39;100.00
8641;BME280;4358;42.100;25.222;2023-03-21T02:14:02;99948.09;;;10.29;100.00
8641;BME280;4358;42.100;25.222;2023-03-21T02:16:37;99952.53;;;10.29;100.00
8641;BME280;4358;42.100;25.222;2023-03-21T02:19:24;99947.88;;;10.32;100.00
8641;BME280;4358;42.100;25.222;2023-03-21T02:22:30;99947.78;;;10.34;100.00
8641;BME280;4358;42.100;25.222;2023-03-21T02:25:32;99949.81;;;10.43;100.00
8641;BME280;4358;42.100;25.222;2023-03-21T02:28:08;99934.41;;;10.35;100.00
8641;BME280;4358;42.100;25.222;2023-03-21T02:31:02;99946.47;;;10.12;100.00
8641;BME280;4358;42.100;25.222;2023-03-21T02:37:00;99948.56;;;10.07;100.00
8641;BME280;4358;42.100;25.222;2023-03-21T02:39:37;99937.72;;;9.98;100.00
8641;BME280;4358;42.100;25.222;2023-03-21T02:42:10;99937.19;;;9.78;100.00
8641;BME280;4358;42.100;25.222;2023-03-21T02:44:43;99940.97;;;9.60;100.00
8641;BME280;4358;42.100;25.222;2023-03-21T02:47:15;99931.41;;;9.44;100.00
8641;BME280;4358;42.100;25.222;2023-03-21T02:49:48;99938.44;;;9.45;100.00
8641;BME280;4358;42.100;25.222;2023-03-21T02:52:22;99917.59;;;9.39;100.00
8641;BME280;4358;42.100;25.222;2023-03-21T02:54:50;99934.63;;;9.49;100.00
8641;BME280;4358;42.100;25.222;2023-03-21T02:57:18;99939.34;;;9.58;100.00
8641;BME280;4358;42.100;25.222;2023-03-21T02:59:47;99949.78;;;9.61;100.00
8641;BME280;4358;42.100;25.222;2023-03-21T03:02:16;99943.34;;;9.65;100.00
8641;BME280;4358;42.100;25.222;2023-03-21T03:04:46;99943.72;;;9.73;100.00
8641;BME280;4358;42.100;25.222;2023-03-21T03:07:22;99954.78;;;9.79;100.00
8641;BME280;4358;42.100;25.222;2023-03-21T03:10:02;99952.88;;;9.82;100.00
8641;BME280;4358;42.100;25.222;2023-03-21T03:12:42;99955.25;;;9.86;100.00
8641;BME280;4358;42.100;25.222;2023-03-21T03:15:20;99962.25;;;9.87;100.00
8641;BME280;4358;42.100;25.222;2023-03-21T03:17:50;99936.81;;;9.70;100.00
8641;BME280;4358;42.100;25.222;2023-03-21T03:20:26;99953.53;;;9.85;100.00
8641;BME280;4358;42.100;25.222;2023-03-21T03:23:04;99954.88;;;9.78;100.00
8641;BME280;4358;42.100;25.222;2023-03-21T03:25:37;99957.97;;;9.85;100.00
8641;BME280;4358;42.100;25.222;2023-03-21T03:28:06;99967.16;;;9.93;100.00
8641;BME280;4358;42.100;25.222;2023-03-21T03:30:35;99967.16;;;9.93;100.00
8641;BME280;4358;42.100;25.222;2023-03-21T03:33:04;99966.31;;;9.93;100.00
8641;BME280;4358;42.100;25.222;2023-03-21T03:35:32;99953.53;;;9.85;100.00
8641;BME280;4358;42.100;25.222;2023-03-21T03:38:02;99959.91;;;9.83;100.00
8641;BME280;4358;42.100;25.222;2023-03-21T03:40:35;99957.91;;;9.72;100.00
8641;BME280;4358;42.100;25.222;2023-03-21T03:43:09;99960.38;;;9.61;100.00
8641;BME280;4358;42.100;25.222;2023-03-21T03:45:42;99959.53;;;9.60;100.00
8641;BME280;4358;42.100;25.222;2023-03-21T03:48:14;99945.63;;;9.57;100.00
8641;BME280;4358;42.100;25.222;2023-03-21T03:50:47;99938.59;;;9.13;100.00
8641;BME280;4358;42.100;25.222;2023-03-21T03:53:20;99924.56;;;8.83;100.00
8641;BME280;4358;42.100;25.222;2023-03-21T03:55:49;99925.63;;;8.65;100.00
8641;BME280;4358;42.100;25.222;2023-03-21T03:58:17;99917.66;;;8.50;100.00
8641;BME280;4358;42.100;25.222;2023-03-21T04:00:46;99941.44;;;8.80;100.00
8641;BME280;4358;42.100;25.222;2023-03-21T04:03:14;99944.78;;;8.84;100.00
8641;BME280;4358;42.100;25.222;2023-03-21T04:05:40;99945.19;;;8.92;100.00
8641;BME280;4358;42.100;25.222;2023-03-21T04:08:11;99942.16;;;8.84;100.00
8641;BME280;4358;42.100;25.222;2023-03-21T04:10:40;99945.88;;;8.80;100.00
8641;BME280;4358;42.100;25.222;2023-03-21T04:13:07;99946.22;;;8.89;100.00
8641;BME280;4358;42.100;25.222;2023-03-21T04:15:34;99948.66;;;8.78;100.00
8641;BME280;4358;42.100;25.222;2023-03-21T04:18:02;99947.22;;;8.73;100.00
8641;BME280;4358;42.100;25.222;2023-03-21T04:20:29;99957.00;;;9.01;100.00
8641;BME280;4358;42.100;25.222;2023-03-21T04:22:56;99969.50;;;9.13;100.00
8641;BME280;4358;42.100;25.222;2023-03-21T04:25:23;99959.03;;;9.25;100.00
8641;BME280;4358;42.100;25.222;2023-03-21T04:27:54;99968.31;;;9.32;100.00
8641;BME280;4358;42.100;25.222;2023-03-21T04:30:21;99970.00;;;9.33;100.00
8641;BME280;4358;42.100;25.222;2023-03-21T04:32:49;99963.56;;;9.23;100.00
8641;BME280;4358;42.100;25.222;2023-03-21T04:35:19;99967.72;;;9.27;100.00
8641;BME280;4358;42.100;25.222;2023-03-21T04:37:46;99974.56;;;9.31;100.00
8641;BME280;4358;42.100;25.222;2023-03-21T04:40:13;99969.28;;;9.31;100.00
8641;BME280;4358;42.100;25.222;2023-03-21T04:42:42;99969.44;;;9.28;100.00
8641;BME280;4358;42.100;25.222;2023-03-21T04:45:11;99973.81;;;9.29;100.00
8641;BME280;4358;42.100;25.222;2023-03-21T04:47:38;99980.31;;;9.38;100.00
8641;BME280;4358;42.100;25.222;2023-03-21T04:50:05;99977.88;;;9.35;100.00
8641;BME280;4358;42.100;25.222;2023-03-21T04:52:32;99982.13;;;9.38;100.00
8641;BME280;4358;42.100;25.222;2023-03-21T04:54:59;99993.94;;;9.32;100.00
8641;BME280;4358;42.100;25.222;2023-03-21T04:57:26;99987.63;;;9.34;100.00
8641;BME280;4358;42.100;25.222;2023-03-21T04:59:53;99992.19;;;9.47;100.00
8641;BME280;4358;42.100;25.222;2023-03-21T05:02:21;99994.44;;;9.53;100.00
8641;BME280;4358;42.100;25.222;2023-03-21T05:04:48;99992.91;;;9.49;100.00
8641;BME280;4358;42.100;25.222;2023-03-21T05:07:15;100001.28;;;9.57;100.00
8641;BME280;4358;42.100;25.222;2023-03-21T05:09:42;100009.50;;;9.08;100.00
8641;BME280;4358;42.100;25.222;2023-03-21T05:12:09;100003.13;;;8.67;100.00
8641;BME280;4358;42.100;25.222;2023-03-21T05:14:36;100002.25;;;8.82;100.00
8641;BME280;4358;42.100;25.222;2023-03-21T05:17:03;100002.03;;;8.85;100.00
8641;BME280;4358;42.100;25.222;2023-03-21T05:19:31;99998.47;;;8.86;100.00
8641;BME280;4358;42.100;25.222;2023-03-21T05:22:02;99994.88;;;8.87;100.00
8641;BME280;4358;42.100;25.222;2023-03-21T05:24:30;100002.03;;;8.85;100.00
8641;BME280;4358;42.100;25.222;2023-03-21T05:26:58;100008.88;;;8.89;100.00
8641;BME280;4358;42.100;25.222;2023-03-21T05:29:28;100016.06;;;8.87;100.00
8641;BME280;4358;42.100;25.222;2023-03-21T05:31:55;100013.13;;;8.91;100.00
8641;BME280;4358;42.100;25.222;2023-03-21T05:34:23;100018.63;;;8.88;100.00
8641;BME280;4358;42.100;25.222;2023-03-21T05:36:51;100014.34;;;8.86;100.00
8641;BME280;4358;42.100;25.222;2023-03-21T05:39:19;100028.34;;;8.88;100.00
8641;BME280;4358;42.100;25.222;2023-03-21T05:41:46;100032.97;;;8.84;100.00
8641;BME280;4358;42.100;25.222;2023-03-21T05:44:13;100022.50;;;8.97;100.00
8641;BME280;4358;42.100;25.222;2023-03-21T05:46:39;100027.09;;;9.09;100.00
8641;BME280;4358;42.100;25.222;2023-03-21T05:49:09;100027.41;;;9.19;100.00
8641;BME280;4358;42.100;25.222;2023-03-21T05:51:36;100020.22;;;9.21;100.00
8641;BME280;4358;42.100;25.222;2023-03-21T05:54:04;100027.34;;;9.34;100.00
8641;BME280;4358;42.100;25.222;2023-03-21T05:56:32;100023.19;;;9.45;100.00
8641;BME280;4358;42.100;25.222;2023-03-21T05:58:58;100015.44;;;9.56;100.00
8641;BME280;4358;42.100;25.222;2023-03-21T06:01:25;100018.88;;;9.72;100.00
8641;BME280;4358;42.100;25.222;2023-03-21T06:03:52;100014.50;;;9.85;100.00
8641;BME280;4358;42.100;25.222;2023-03-21T06:06:19;100018.66;;;10.03;100.00
8641;BME280;4358;42.100;25.222;2023-03-21T06:08:46;100017.88;;;10.15;100.00
8641;BME280;4358;42.100;25.222;2023-03-21T06:11:21;100010.81;;;10.30;100.00
8641;BME280;4358;42.100;25.222;2023-03-21T06:13:49;100011.41;;;10.48;100.00
8641;BME280;4358;42.100;25.222;2023-03-21T06:16:15;100013.25;;;10.60;100.00
8641;BME280;4358;42.100;25.222;2023-03-21T06:18:42;100022.41;;;10.69;100.00
8641;BME280;4358;42.100;25.222;2023-03-21T06:21:09;100013.41;;;10.71;100.00
8641;BME280;4358;42.100;25.222;2023-03-21T06:23:36;100004.28;;;10.75;100.00
8641;BME280;4358;42.100;25.222;2023-03-21T06:26:04;100013.44;;;10.84;100.00
8641;BME280;4358;42.100;25.222;2023-03-21T06:28:32;100016.22;;;10.82;100.00
8641;BME280;4358;42.100;25.222;2023-03-21T06:30:59;100020.00;;;10.78;100.00
8641;BME280;4358;42.100;25.222;2023-03-21T06:33:26;100025.06;;;10.95;100.00
8641;BME280;4358;42.100;25.222;2023-03-21T06:35:54;100018.00;;;11.09;100.00
8641;BME280;4358;42.100;25.222;2023-03-21T06:38:21;100027.34;;;11.27;100.00
8641;BME280;4358;42.100;25.222;2023-03-21T06:40:49;100028.56;;;11.35;100.00
8641;BME280;4358;42.100;25.222;2023-03-21T06:43:16;100021.75;;;11.57;100.00
8641;BME280;4358;42.100;25.222;2023-03-21T06:45:44;100023.16;;;11.75;100.00
8641;BME280;4358;42.100;25.222;2023-03-21T06:48:11;100025.94;;;11.73;100.00
8641;BME280;4358;42.100;25.222;2023-03-21T06:50:38;100012.53;;;11.87;100.00
8641;BME280;4358;42.100;25.222;2023-03-21T06:53:05;100015.50;;;11.96;100.00
8641;BME280;4358;42.100;25.222;2023-03-21T06:55:32;100019.00;;;12.09;100.00
8641;BME280;4358;42.100;25.222;2023-03-21T06:57:59;100015.16;;;12.13;100.00
8641;BME280;4358;42.100;25.222;2023-03-21T07:00:26;100008.03;;;12.13;100.00
8641;BME280;4358;42.100;25.222;2023-03-21T07:02:54;100013.22;;;12.15;100.00
8641;BME280;4358;42.100;25.222;2023-03-21T07:05:21;100018.75;;;12.12;100.00
8641;BME280;4358;42.100;25.222;2023-03-21T07:07:47;100017.38;;;12.19;100.00
8641;BME280;4358;42.100;25.222;2023-03-21T07:10:14;100012.66;;;12.35;100.00
8641;BME280;4358;42.100;25.222;2023-03-21T07:12:41;100007.09;;;12.38;100.00
8641;BME280;4358;42.100;25.222;2023-03-21T07:15:09;100011.53;;;12.50;100.00
8641;BME280;4358;42.100;25.222;2023-03-21T07:17:36;100003.56;;;12.50;100.00
8641;BME280;4358;42.100;25.222;2023-03-21T07:20:05;100024.00;;;12.73;100.00
8641;BME280;4358;42.100;25.222;2023-03-21T07:22:32;100020.03;;;12.79;100.00
8641;BME280;4358;42.100;25.222;2023-03-21T07:25:00;100018.63;;;12.86;100.00
8641;BME280;4358;42.100;25.222;2023-03-21T07:27:26;100023.16;;;12.97;100.00
8641;BME280;4358;42.100;25.222;2023-03-21T07:29:53;100012.59;;;12.95;100.00
8641;BME280;4358;42.100;25.222;2023-03-21T07:32:20;100014.91;;;13.00;100.00
8641;BME280;4358;42.100;25.222;2023-03-21T07:34:47;100017.53;;;13.12;100.00
8641;BME280;4358;42.100;25.222;2023-03-21T07:37:16;100009.91;;;13.19;100.00
8641;BME280;4358;42.100;25.222;2023-03-21T07:39:42;100005.81;;;13.26;100.00
8641;BME280;4358;42.100;25.222;2023-03-21T07:42:09;100001.03;;;13.42;100.00
8641;BME280;4358;42.100;25.222;2023-03-21T07:44:36;100008.06;;;13.43;100.00
8641;BME280;4358;42.100;25.222;2023-03-21T07:47:04;100004.19;;;13.58;100.00
8641;BME280;4358;42.100;25.222;2023-03-21T07:49:31;100010.75;;;13.77;100.00
8641;BME280;4358;42.100;25.222;2023-03-21T07:51:57;100003.75;;;13.87;100.00
8641;BME280;4358;42.100;25.222;2023-03-21T07:54:28;99999.59;;;13.94;100.00
8641;BME280;4358;42.100;25.222;2023-03-21T07:56:54;100006.38;;;13.98;100.00
8641;BME280;4358;42.100;25.222;2023-03-21T07:59:22;100008.09;;;14.10;100.00
8641;BME280;4358;42.100;25.222;2023-03-21T08:01:49;100002.00;;;14.30;100.00
8641;BME280;4358;42.100;25.222;2023-03-21T08:04:16;99999.81;;;14.24;100.00
8641;BME280;4358;42.100;25.222;2023-03-21T08:06:43;99992.78;;;14.46;100.00
8641;BME280;4358;42.100;25.222;2023-03-21T08:09:09;99999.28;;;14.64;100.00
8641;BME280;4358;42.100;25.222;2023-03-21T08:11:38;100002.94;;;14.63;100.00
8641;BME280;4358;42.100;25.222;2023-03-21T08:14:05;99997.22;;;14.67;100.00
8641;BME280;4358;42.100;25.222;2023-03-21T08:16:32;99996.28;;;14.89;100.00
8641;BME280;4358;42.100;25.222;2023-03-21T08:18:59;100008.59;;;15.12;100.00
8641;BME280;4358;42.100;25.222;2023-03-21T08:21:26;99997.34;;;15.39;100.00
8641;BME280;4358;42.100;25.222;2023-03-21T08:23:53;100000.44;;;15.55;100.00
8641;BME280;4358;42.100;25.222;2023-03-21T08:26:20;100001.94;;;15.69;100.00
8641;BME280;4358;42.100;25.222;2023-03-21T08:28:53;99995.50;;;15.81;100.00
8641;BME280;4358;42.100;25.222;2023-03-21T08:31:20;99985.97;;;15.88;100.00
8641;BME280;4358;42.100;25.222;2023-03-21T08:33:47;99980.97;;;16.04;100.00
8641;BME280;4358;42.100;25.222;2023-03-21T08:36:18;99973.41;;;16.19;100.00
8641;BME280;4358;42.100;25.222;2023-03-21T08:38:45;99979.91;;;16.17;100.00
8641;BME280;4358;42.100;25.222;2023-03-21T08:41:12;99974.25;;;16.20;100.00
8641;BME280;4358;42.100;25.222;2023-03-21T08:43:39;99972.31;;;16.22;100.00
8641;BME280;4358;42.100;25.222;2023-03-21T08:46:08;99970.06;;;16.27;100.00
8641;BME280;4358;42.100;25.222;2023-03-21T08:48:34;99985.44;;;16.44;99.92
8641;BME280;4358;42.100;25.222;2023-03-21T08:51:03;99988.47;;;16.60;98.15
8641;BME280;4358;42.100;25.222;2023-03-21T08:53:31;99972.66;;;16.57;98.87
8641;BME280;4358;42.100;25.222;2023-03-21T08:55:58;99976.09;;;16.78;95.81
8641;BME280;4358;42.100;25.222;2023-03-21T08:58:25;99976.66;;;16.91;96.99
8641;BME280;4358;42.100;25.222;2023-03-21T09:00:51;99973.69;;;17.04;95.33
8641;BME280;4358;42.100;25.222;2023-03-21T09:03:20;99968.75;;;17.09;94.43
8641;BME280;4358;42.100;25.222;2023-03-21T09:05:46;99957.19;;;16.99;94.79
8641;BME280;4358;42.100;25.222;2023-03-21T09:08:14;99964.06;;;17.30;93.25
8641;BME280;4358;42.100;25.222;2023-03-21T09:10:41;99960.91;;;17.45;91.01
8641;BME280;4358;42.100;25.222;2023-03-21T09:13:08;99961.59;;;17.56;89.88
8641;BME280;4358;42.100;25.222;2023-03-21T09:15:34;99948.63;;;17.61;89.61
8641;BME280;4358;42.100;25.222;2023-03-21T09:18:01;99948.13;;;17.75;87.65
8641;BME280;4358;42.100;25.222;2023-03-21T09:20:39;99937.72;;;17.72;86.26
8641;BME280;4358;42.100;25.222;2023-03-21T09:23:08;99946.03;;;17.69;86.07
8641;BME280;4358;42.100;25.222;2023-03-21T09:25:35;99947.22;;;17.38;87.59
8641;BME280;4358;42.100;25.222;2023-03-21T09:28:03;99946.66;;;17.44;89.86
8641;BME280;4358;42.100;25.222;2023-03-21T09:30:31;99940.84;;;17.49;89.59
8641;BME280;4358;42.100;25.222;2023-03-21T09:32:59;99939.66;;;17.24;91.46
8641;BME280;4358;42.100;25.222;2023-03-21T09:35:26;99933.88;;;17.19;92.53
8641;BME280;4358;42.100;25.222;2023-03-21T09:37:55;99934.56;;;17.21;93.41
8641;BME280;4358;42.100;25.222;2023-03-21T09:40:34;99913.13;;;17.21;92.90
8641;BME280;4358;42.100;25.222;2023-03-21T09:43:13;99927.84;;;16.88;95.02
8641;BME280;4358;42.100;25.222;2023-03-21T09:45:51;99920.78;;;16.77;96.49
8641;BME280;4358;42.100;25.222;2023-03-21T09:48:31;99917.28;;;16.67;97.81
8641;BME280;4358;42.100;25.222;2023-03-21T09:51:00;99908.38;;;16.76;97.61
8641;BME280;4358;42.100;25.222;2023-03-21T09:53:33;99920.22;;;16.83;97.19
8641;BME280;4358;42.100;25.222;2023-03-21T09:56:04;99923.88;;;16.82;98.18
8641;BME280;4358;42.100;25.222;2023-03-21T09:58:35;99903.09;;;17.13;94.22
8641;BME280;4358;42.100;25.222;2023-03-21T10:01:09;99920.66;;;17.45;92.59
8641;BME280;4358;42.100;25.222;2023-03-21T10:03:47;99915.84;;;17.67;90.49
8641;BME280;4358;42.100;25.222;2023-03-21T10:06:15;99913.75;;;17.89;88.70
8641;BME280;4358;42.100;25.222;2023-03-21T10:08:45;99919.22;;;18.24;86.88
8641;BME280;4358;42.100;25.222;2023-03-21T10:11:17;99912.84;;;18.43;83.03
8641;BME280;4358;42.100;25.222;2023-03-21T10:13:49;99926.72;;;18.83;78.80
8641;BME280;4358;42.100;25.222;2023-03-21T10:16:21;99923.81;;;18.77;77.64
8641;BME280;4358;42.100;25.222;2023-03-21T10:18:51;99927.69;;;19.00;75.86
8641;BME280;4358;42.100;25.222;2023-03-21T10:21:21;99920.06;;;19.13;73.98
8641;BME280;4358;42.100;25.222;2023-03-21T10:23:55;99918.22;;;19.14;74.69
8641;BME280;4358;42.100;25.222;2023-03-21T10:26:24;99917.91;;;19.17;73.97
8641;BME280;4358;42.100;25.222;2023-03-21T10:28:53;99916.16;;;19.33;73.95
8641;BME280;4358;42.100;25.222;2023-03-21T10:31:23;99930.75;;;19.49;71.94
8641;BME280;4358;42.100;25.222;2023-03-21T10:33:53;99922.91;;;19.37;71.85
8641;BME280;4358;42.100;25.222;2023-03-21T10:36:23;99917.31;;;19.49;71.79
8641;BME280;4358;42.100;25.222;2023-03-21T10:38:55;99907.25;;;19.59;69.67
8641;BME280;4358;42.100;25.222;2023-03-21T10:41:23;99897.63;;;19.82;68.36
8641;BME280;4358;42.100;25.222;2023-03-21T10:44:04;99887.94;;;19.97;66.42
8641;BME280;4358;42.100;25.222;2023-03-21T10:46:31;99878.94;;;19.80;67.92
8641;BME280;4358;42.100;25.222;2023-03-21T10:48:59;99885.19;;;19.89;68.68
8641;BME280;4358;42.100;25.222;2023-03-21T10:51:27;99882.84;;;19.86;69.76
8641;BME280;4358;42.100;25.222;2023-03-21T10:53:59;99854.28;;;19.33;72.01
8641;BME280;4358;42.100;25.222;2023-03-21T10:56:28;99842.78;;;18.97;76.15
8641;BME280;4358;42.100;25.222;2023-03-21T10:58:57;99858.53;;;19.10;75.93
8641;BME280;4358;42.100;25.222;2023-03-21T11:01:28;99860.41;;;19.18;75.27
8641;BME280;4358;42.100;25.222;2023-03-21T11:03:58;99858.69;;;19.42;73.71
8641;BME280;4358;42.100;25.222;2023-03-21T11:06:28;99839.50;;;19.37;73.39
8641;BME280;4358;42.100;25.222;2023-03-21T11:09:00;99826.38;;;19.34;73.10
8641;BME280;4358;42.100;25.222;2023-03-21T11:11:35;99822.09;;;19.24;73.76
8641;BME280;4358;42.100;25.222;2023-03-21T11:14:04;99830.19;;;19.50;72.95
8641;BME280;4358;42.100;25.222;2023-03-21T11:16:36;99832.50;;;19.44;72.68
8641;BME280;4358;42.100;25.222;2023-03-21T11:19:12;99833.75;;;19.58;72.15
8641;BME280;4358;42.100;25.222;2023-03-21T11:21:40;99834.34;;;19.78;71.92
8641;BME280;4358;42.100;25.222;2023-03-21T11:24:12;99823.25;;;19.89;70.78
8641;BME280;4358;42.100;25.222;2023-03-21T11:26:41;99814.47;;;19.79;71.12
8641;BME280;4358;42.100;25.222;2023-03-21T11:29:32;99809.41;;;19.68;70.10
8641;BME280;4358;42.100;25.222;2023-03-21T11:32:08;99803.69;;;19.71;70.08
8641;BME280;4358;42.100;25.222;2023-03-21T11:34:43;99797.25;;;19.64;71.04
8641;BME280;4358;42.100;25.222;2023-03-21T11:37:19;99792.25;;;19.77;70.12
8641;BME280;4358;42.100;25.222;2023-03-21T11:39:54;99778.44;;;19.72;70.17
8641;BME280;4358;42.100;25.222;2023-03-21T11:42:26;99773.34;;;19.61;71.00
8641;BME280;4358;42.100;25.222;2023-03-21T11:45:03;99771.38;;;19.79;69.62
8641;BME280;4358;42.100;25.222;2023-03-21T11:47:30;99762.63;;;19.77;69.10
8641;BME280;4358;42.100;25.222;2023-03-21T11:49:57;99751.81;;;19.69;70.28
8641;BME280;4358;42.100;25.222;2023-03-21T11:52:31;99743.53;;;19.54;72.49
8641;BME280;4358;42.100;25.222;2023-03-21T11:55:31;99736.81;;;19.58;72.55
8641;BME280;4358;42.100;25.222;2023-03-21T11:58:12;99734.03;;;19.84;71.33
8641;BME280;4358;42.100;25.222;2023-03-21T12:00:47;99730.69;;;19.98;71.44
8641;BME280;4358;42.100;25.222;2023-03-21T12:03:58;99727.66;;;20.01;70.11
8641;BME280;4358;42.100;25.222;2023-03-21T12:06:33;99719.25;;;20.04;70.71
8641;BME280;4358;42.100;25.222;2023-03-21T12:09:24;99728.88;;;20.39;68.05
8641;BME280;4358;42.100;25.222;2023-03-21T12:12:01;99716.22;;;20.32;68.13
8641;BME280;4358;42.100;25.222;2023-03-21T12:14:36;99710.34;;;20.20;69.70
8641;BME280;4358;42.100;25.222;2023-03-21T12:17:12;99710.16;;;19.97;69.66
8641;BME280;4358;42.100;25.222;2023-03-21T12:19:55;99716.06;;;20.09;70.94
8641;BME280;4358;42.100;25.222;2023-03-21T12:22:32;99727.97;;;19.90;68.99
8641;BME280;4358;42.100;25.222;2023-03-21T12:25:09;99724.28;;;19.91;68.33
8641;BME280;4358;42.100;25.222;2023-03-21T12:27:45;99710.81;;;20.15;67.14
8641;BME280;4358;42.100;25.222;2023-03-21T12:30:24;99715.56;;;20.38;61.56
8641;BME280;4358;42.100;25.222;2023-03-21T12:33:13;99710.81;;;20.48;63.11
8641;BME280;4358;42.100;25.222;2023-03-21T12:35:55;99711.69;;;20.32;63.53
8641;BME280;4358;42.100;25.222;2023-03-21T12:38:28;99710.16;;;20.21;63.61
8641;BME280;4358;42.100;25.222;2023-03-21T12:41:12;99714.38;;;20.24;64.13
8641;BME280;4358;42.100;25.222;2023-03-21T12:43:46;99693.31;;;20.27;62.64
8641;BME280;4358;42.100;25.222;2023-03-21T12:46:21;99690.63;;;20.44;62.25
8641;BME280;4358;42.100;25.222;2023-03-21T12:48:51;99700.03;;;20.48;64.15
8641;BME280;4358;42.100;25.222;2023-03-21T12:51:22;99686.91;;;20.53;63.71
8641;BME280;4358;42.100;25.222;2023-03-21T12:53:56;99683.19;;;20.54;62.35
8641;BME280;4358;42.100;25.222;2023-03-21T12:56:28;99683.50;;;20.67;62.53
8641;BME280;4358;42.100;25.222;2023-03-21T12:59:02;99682.72;;;20.34;63.77
8641;BME280;4358;42.100;25.222;2023-03-21T13:01:34;99676.97;;;20.37;63.72
8641;BME280;4358;42.100;25.222;2023-03-21T13:04:14;99675.81;;;20.40;63.87
8641;BME280;4358;42.100;25.222;2023-03-21T13:06:47;99662.34;;;20.32;63.44
8641;BME280;4358;42.100;25.222;2023-03-21T13:09:31;99668.56;;;20.32;62.92
8641;BME280;4358;42.100;25.222;2023-03-21T13:12:04;99665.69;;;20.17;62.92
8641;BME280;4358;42.100;25.222;2023-03-21T13:14:37;99663.03;;;20.09;63.00
8641;BME280;4358;42.100;25.222;2023-03-21T13:17:10;99661.31;;;20.16;63.42
8641;BME280;4358;42.100;25.222;2023-03-21T13:19:49;99661.66;;;20.13;63.86
8641;BME280;4358;42.100;25.222;2023-03-21T13:22:22;99653.22;;;19.84;66.09
8641;BME280;4358;42.100;25.222;2023-03-21T13:24:56;99656.09;;;19.91;65.15